Time;durP1;ratioP1;P1;durP2;ratioP2;P2;SDS_P1;SDS_P2;PMS_P1;PMS_P2;Temp;Humidity;BMP_temperature;BMP_pressure;BME280_temperature;BME280_humidity;BME280_pressure;Samples;Min_cycle;Max_cycle;Signal;HPM_P1;HPM_P2
2022/11/19 00:03:48;;;;;;;;;;;;;;;;;;8445151;27;27839;-76
2022/11/19 00:07:48;;;;;;;;;;;;;;;;;;8440074;27;27347;-77
2022/11/19 00:16:07;;;;;;;;;;;;;;;;;;8440538;27;27420;-79
2022/11/19 00:20:07;;;;;;;;;;;;;;;;;;8448159;27;28338;-80
2022/11/19 00:24:07;;;;;;;;;;;;;;;;;;8439266;27;27436;-77
2022/11/19 00:28:07;;;;;;;;;;;;;;;;;;8443971;27;28455;-78
2022/11/19 00:32:07;;;;;;;;;;;;;;;;;;8448559;27;27488;-77
2022/11/19 00:36:07;;;;;;;;;;;;;;;;;;8445674;27;27212;-76
2022/11/19 00:40:10;;;;;;;;;;;;;;;;;;8444246;27;27663;-77
2022/11/19 00:44:10;;;;;;;;;;;;;;;;;;8447515;27;28662;-79
2022/11/19 00:48:10;;;;;;;;;;;;;;;;;;8440955;27;28055;-78
2022/11/19 00:52:10;;;;;;;;;;;;;;;;;;8443320;27;27108;-76
2022/11/19 00:56:11;;;;;;;;;;;;;;;;;;8451926;27;27391;-80
2022/11/19 01:00:11;;;;;;;;;;;;;;;;;;8442963;27;28268;-75
2022/11/19 01:04:11;;;;;;;;;;;;;;;;;;8445705;27;28073;-77
2022/11/19 01:08:11;;;;;;;;;;;;;;;;;;8444682;27;27241;-77
2022/11/19 01:12:11;;;;;;;;;;;;;;;;;;8444086;27;27912;-76
2022/11/19 01:16:11;;;;;;;;;;;;;;;;;;8449698;27;27540;-76
2022/11/19 01:20:11;;;;;;;;;;;;;;;;;;8445381;27;28169;-77
2022/11/19 01:24:11;;;;;;;;;;;;;;;;;;8443356;27;28934;-75
2022/11/19 01:28:11;;;;;;;;;;;;;;;;;;8443373;27;27045;-78
2022/11/19 01:32:12;;;;;;;;;;;;;;;;;;8448688;27;29079;-76
2022/11/19 01:36:12;;;;;;;;;;;;;;;;;;8449426;27;28772;-77
2022/11/19 01:40:12;;;;;;;;;;;;;;;;;;8448960;27;27665;-78
2022/11/19 01:44:12;;;;;;;;;;;;;;;;;;8450670;27;27375;-79
2022/11/19 01:48:12;;;;;;;;;;;;;;;;;;8448839;27;27865;-77
2022/11/19 01:52:12;;;;;;;;;;;;;;;;;;8449278;27;28465;-75
2022/11/19 01:56:12;;;;;;;;;;;;;;;;;;8447768;27;27910;-77
2022/11/19 02:00:12;;;;;;;;;;;;;;;;;;8450185;27;27272;-75
2022/11/19 02:04:12;;;;;;;;;;;;;;;;;;8446421;27;27296;-76
2022/11/19 02:08:13;;;;;;;;;;;;;;;;;;8453044;27;27321;-76
2022/11/19 02:12:13;;;;;;;;;;;;;;;;;;8445913;27;28425;-77
2022/11/19 02:16:13;;;;;;;;;;;;;;;;;;8445054;27;27687;-76
2022/11/19 02:20:13;;;;;;;;;;;;;;;;;;8458201;27;28539;-77
2022/11/19 02:24:13;;;;;;;;;;;;;;;;;;8449276;27;27734;-78
2022/11/19 02:28:13;;;;;;;;;;;;;;;;;;8448919;27;28728;-79
2022/11/19 02:32:13;;;;;;;;;;;;;;;;;;8450192;27;27204;-77
2022/11/19 02:36:13;;;;;;;;;;;;;;;;;;8449765;27;28625;-78
2022/11/19 02:40:13;;;;;;;;;;;;;;;;;;8449674;27;28444;-78
2022/11/19 02:48:32;;;;;;;;;;;;;;;;;;8449365;27;27355;-77
2022/11/19 02:52:32;;;;;;;;;;;;;;;;;;8447354;27;27315;-77
2022/11/19 02:56:33;;;;;;;;;;;;;;;;;;8450996;27;28832;-78
2022/11/19 03:04:51;;;;;;;;;;;;;;;;;;8448452;27;27463;-75
2022/11/19 03:08:51;;;;;;;;;;;;;;;;;;8449457;27;28849;-77
2022/11/19 03:12:51;;;;;;;;;;;;;;;;;;8448129;27;27284;-77
2022/11/19 03:16:51;;;;;;;;;;;;;;;;;;8447032;27;27424;-79
2022/11/19 03:20:52;;;;;;;;;;;;;;;;;;8445379;27;29176;-79
2022/11/19 03:24:52;;;;;;;;;;;;;;;;;;8446705;27;27260;-77
2022/11/19 03:28:52;;;;;;;;;;;;;;;;;;8448937;27;27473;-76
2022/11/19 03:32:52;;;;;;;;;;;;;;;;;;8450698;27;27498;-78
2022/11/19 03:36:52;;;;;;;;;;;;;;;;;;8450759;27;28271;-75
2022/11/19 03:40:52;;;;;;;;;;;;;;;;;;8451139;27;27654;-76
2022/11/19 03:44:52;;;;;;;;;;;;;;;;;;8447336;27;27470;-76
2022/11/19 03:48:52;;;;;;;;;;;;;;;;;;8448826;27;28986;-76
2022/11/19 03:52:52;;;;;;;;;;;;;;;;;;8443609;27;27636;-75
2022/11/19 03:56:52;;;;;;;;;;;;;;;;;;8443517;27;27362;-75
2022/11/19 04:00:53;;;;;;;;;;;;;;;;;;8444015;27;27150;-77
2022/11/19 04:04:53;;;;;;;;;;;;;;;;;;8444371;27;27194;-76
2022/11/19 04:08:53;;;;;;;;;;;;;;;;;;8450884;27;27480;-77
2022/11/19 04:12:53;;;;;;;;;;;;;;;;;;8448336;27;27151;-76
2022/11/19 04:16:53;;;;;;;;;;;;;;;;;;8448870;27;27387;-76
2022/11/19 04:20:53;;;;;;;;;;;;;;;;;;8443731;27;27366;-77
2022/11/19 04:24:53;;;;;;;;;;;;;;;;;;8443340;27;27411;-76
2022/11/19 04:28:53;;;;;;;;;;;;;;;;;;8447990;27;27886;-78
2022/11/19 04:32:53;;;;;;;;;;;;;;;;;;8445200;27;27385;-78
2022/11/19 04:36:53;;;;;;;;;;;;;;;;;;8445989;27;27346;-79
2022/11/19 04:40:53;;;;;;;;;;;;;;;;;;8452763;27;27393;-77
2022/11/19 04:44:53;;;;;;;;;;;;;;;;;;8444650;27;27202;-77
2022/11/19 04:48:54;;;;;;;;;;;;;;;;;;8454906;27;29097;-75
2022/11/19 04:52:54;;;;;;;;;;;;;;;;;;8448723;27;27227;-78
2022/11/19 04:56:54;;;;;;;;;;;;;;;;;;8441956;27;27293;-76
2022/11/19 05:00:54;;;;;;;;;;;;;;;;;;8440783;27;28463;-77
2022/11/19 05:04:54;;;;;;;;;;;;;;;;;;8444619;27;28157;-76
2022/11/19 05:08:54;;;;;;;;;;;;;;;;;;8447669;27;27054;-76
2022/11/19 05:12:54;;;;;;;;;;;;;;;;;;8446610;27;27260;-76
2022/11/19 05:16:54;;;;;;;;;;;;;;;;;;8443782;27;27590;-76
2022/11/19 05:20:54;;;;;;;;;;;;;;;;;;8447666;27;28129;-77
2022/11/19 05:24:54;;;;;;;;;;;;;;;;;;8445745;27;27359;-76
2022/11/19 05:28:54;;;;;;;;;;;;;;;;;;8447416;27;28081;-78
2022/11/19 05:32:54;;;;;;;;;;;;;;;;;;8440415;27;28296;-79
2022/11/19 05:36:54;;;;;;;;;;;;;;;;;;8441844;27;28169;-78
2022/11/19 05:40:55;;;;;;;;;;;;;;;;;;8445388;27;27334;-76
2022/11/19 05:44:55;;;;;;;;;;;;;;;;;;8442959;27;27365;-77
2022/11/19 05:48:55;;;;;;;;;;;;;;;;;;8444344;27;27271;-77
2022/11/19 05:52:55;;;;;;;;;;;;;;;;;;8442608;27;27635;-76
2022/11/19 05:56:55;;;;;;;;;;;;;;;;;;8446273;27;27420;-75
2022/11/19 06:00:55;;;;;;;;;;;;;;;;;;8444411;27;27796;-75
2022/11/19 06:04:55;;;;;;;;;;;;;;;;;;8443084;27;28260;-78
2022/11/19 06:08:55;;;;;;;;;;;;;;;;;;8440732;27;28088;-76
2022/11/19 06:12:55;;;;;;;;;;;;;;;;;;8442772;27;27582;-77
2022/11/19 06:16:55;;;;;;;;;;;;;;;;;;8449094;27;27692;-76
2022/11/19 06:20:55;;;;;;;;;;;;;;;;;;8449058;27;27414;-77
2022/11/19 06:24:55;;;;;;;;;;;;;;;;;;8446109;27;28615;-78
2022/11/19 06:28:56;;;;;;;;;;;;;;;;;;8448324;27;27173;-79
2022/11/19 06:32:56;;;;;;;;;;;;;;;;;;8446597;27;27263;-79
2022/11/19 06:36:57;;;;;;;;;;;;;;;;;;8449670;27;27377;-78
2022/11/19 06:40:57;;;;;;;;;;;;;;;;;;8448006;27;29040;-78
2022/11/19 06:44:57;;;;;;;;;;;;;;;;;;8450582;27;28599;-79
2022/11/19 06:48:57;;;;;;;;;;;;;;;;;;8448788;27;27861;-77
2022/11/19 06:52:57;;;;;;;;;;;;;;;;;;8447834;27;27752;-77
2022/11/19 06:56:57;;;;;;;;;;;;;;;;;;8454450;27;28433;-80
2022/11/19 07:00:58;;;;;;;;;;;;;;;;;;8446618;27;27283;-77
2022/11/19 07:04:58;;;;;;;;;;;;;;;;;;8444692;27;27226;-77
2022/11/19 07:08:58;;;;;;;;;;;;;;;;;;8448699;27;27644;-78
2022/11/19 07:12:58;;;;;;;;;;;;;;;;;;8452311;27;28507;-76
2022/11/19 07:16:58;;;;;;;;;;;;;;;;;;8447451;27;28710;-78
2022/11/19 07:20:58;;;;;;;;;;;;;;;;;;8451326;27;28563;-77
2022/11/19 07:24:58;;;;;;;;;;;;;;;;;;8441518;27;27908;-76
2022/11/19 07:28:58;;;;;;;;;;;;;;;;;;8449265;27;28811;-77
2022/11/19 07:32:59;;;;;;;;;;;;;;;;;;8450179;27;27359;-77
2022/11/19 07:36:59;;;;;;;;;;;;;;;;;;8448013;27;28054;-77
2022/11/19 07:40:59;;;;;;;;;;;;;;;;;;8445324;27;27458;-78
2022/11/19 07:44:59;;;;;;;;;;;;;;;;;;8448971;27;28792;-78
2022/11/19 07:48:59;;;;;;;;;;;;;;;;;;8446010;27;27331;-79
2022/11/19 07:52:59;;;;;;;;;;;;;;;;;;8448900;27;30228;-78
2022/11/19 07:56:59;;;;;;;;;;;;;;;;;;8446778;27;27466;-77
2022/11/19 08:00:59;;;;;;;;;;;;;;;;;;8441955;27;28595;-78
2022/11/19 08:04:59;;;;;;;;;;;;;;;;;;8441919;27;27332;-78
2022/11/19 08:09:00;;;;;;;;;;;;;;;;;;8444254;27;27730;-78
2022/11/19 08:13:03;;;;;;;;;;;;;;;;;;8438446;27;29362;-76
2022/11/19 08:21:22;;;;;;;;;;;;;;;;;;8446724;27;27940;-79
2022/11/19 08:25:22;;;;;;;;;;;;;;;;;;8449032;27;27351;-79
2022/11/19 08:29:22;;;;;;;;;;;;;;;;;;8446316;27;27420;-79
2022/11/19 08:33:22;;;;;;;;;;;;;;;;;;8444659;27;29580;-79
2022/11/19 08:37:22;;;;;;;;;;;;;;;;;;8440300;27;28799;-76
2022/11/19 08:45:41;;;;;;;;;;;;;;;;;;8444471;27;27307;-80
2022/11/19 08:49:41;;;;;;;;;;;;;;;;;;8447284;27;28425;-80
2022/11/19 08:53:41;;;;;;;;;;;;;;;;;;8443804;27;27405;-78
2022/11/19 08:57:41;;;;;;;;;;;;;;;;;;8443534;27;27529;-78
2022/11/19 09:01:42;;;;;;;;;;;;;;;;;;8445755;27;27546;-81
2022/11/19 09:05:42;;;;;;;;;;;;;;;;;;8448241;27;27933;-77
2022/11/19 09:09:42;;;;;;;;;;;;;;;;;;8440980;27;27487;-77
2022/11/19 09:13:42;;;;;;;;;;;;;;;;;;8442577;27;27515;-78
2022/11/19 09:17:42;;;;;;;;;;;;;;;;;;8443491;27;27347;-76
2022/11/19 09:21:42;;;;;;;;;;;;;;;;;;8445661;27;28330;-78
2022/11/19 09:25:42;;;;;;;;;;;;;;;;;;8440577;27;28174;-77
2022/11/19 09:29:42;;;;;;;;;;;;;;;;;;8446411;27;28891;-78
2022/11/19 09:33:42;;;;;;;;;;;;;;;;;;8447440;27;27416;-78
2022/11/19 09:37:42;;;;;;;;;;;;;;;;;;8448977;27;28401;-77
2022/11/19 09:41:42;;;;;;;;;;;;;;;;;;8442927;27;27348;-77
2022/11/19 09:45:42;;;;;;;;;;;;;;;;;;8444526;27;27153;-77
2022/11/19 09:49:43;;;;;;;;;;;;;;;;;;8439543;27;27538;-78
2022/11/19 09:53:43;;;;;;;;;;;;;;;;;;8450872;27;27102;-78
2022/11/19 09:57:43;;;;;;;;;;;;;;;;;;8453775;27;27925;-80
2022/11/19 10:01:43;;;;;;;;;;;;;;;;;;8456338;27;29092;-80
2022/11/19 10:05:43;;;;;;;;;;;;;;;;;;8453314;27;27581;-80
2022/11/19 10:09:43;;;;;;;;;;;;;;;;;;8454385;27;27183;-79
2022/11/19 10:13:43;;;;;;;;;;;;;;;;;;8456425;27;27569;-77
2022/11/19 10:17:44;;;;;;;;;;;;;;;;;;8449601;27;27363;-77
2022/11/19 10:21:44;;;;;;;;;;;;;;;;;;8447703;27;27232;-78
2022/11/19 10:25:44;;;;;;;;;;;;;;;;;;8446726;27;27413;-78
2022/11/19 10:29:44;;;;;;;;;;;;;;;;;;8448245;27;27126;-77
2022/11/19 10:33:44;;;;;;;;;;;;;;;;;;8450384;27;27488;-78
2022/11/19 10:37:44;;;;;;;;;;;;;;;;;;8447204;27;27399;-77
2022/11/19 10:41:44;;;;;;;;;;;;;;;;;;8449860;27;28551;-77
2022/11/19 10:45:44;;;;;;;;;;;;;;;;;;8449047;27;27425;-76
2022/11/19 10:49:44;;;;;;;;;;;;;;;;;;8447216;27;28324;-76
2022/11/19 10:53:44;;;;;;;;;;;;;;;;;;8452012;27;27365;-77
2022/11/19 10:57:45;;;;;;;;;;;;;;;;;;8445448;27;28376;-78
2022/11/19 11:01:45;;;;;;;;;;;;;;;;;;8445055;27;27386;-77
2022/11/19 11:05:45;;;;;;;;;;;;;;;;;;8445725;27;27738;-77
2022/11/19 11:09:45;;;;;;;;;;;;;;;;;;8445475;27;28490;-77
2022/11/19 11:18:05;;;;;;;;;;;;;;;;;;8441575;27;27278;-78
2022/11/19 11:22:05;;;;;;;;;;;;;;;;;;8446366;27;27563;-77
2022/11/19 11:26:05;;;;;;;;;;;;;;;;;;8449442;27;28793;-78
2022/11/19 11:30:05;;;;;;;;;;;;;;;;;;8446588;27;29909;-78
2022/11/19 11:34:05;;;;;;;;;;;;;;;;;;8451607;27;28499;-77
2022/11/19 11:38:05;;;;;;;;;;;;;;;;;;8448150;27;27236;-77
2022/11/19 11:42:09;;;;;;;;;;;;;;;;;;8447172;27;28216;-77
2022/11/19 11:46:09;;;;;;;;;;;;;;;;;;8445037;27;29092;-77
2022/11/19 11:50:09;;;;;;;;;;;;;;;;;;8450729;27;27212;-78
2022/11/19 11:54:10;;;;;;;;;;;;;;;;;;8451794;27;27397;-78
2022/11/19 11:58:10;;;;;;;;;;;;;;;;;;8448210;27;29769;-78
2022/11/19 12:02:10;;;;;;;;;;;;;;;;;;8446682;27;27398;-79
2022/11/19 12:06:10;;;;;;;;;;;;;;;;;;8447707;27;27367;-78
2022/11/19 12:10:10;;;;;;;;;;;;;;;;;;8445229;27;28806;-77
2022/11/19 12:14:10;;;;;;;;;;;;;;;;;;8442509;27;30110;-77
2022/11/19 12:18:10;;;;;;;;;;;;;;;;;;8446707;27;27430;-77
2022/11/19 12:22:11;;;;;;;;;;;;;;;;;;8449379;27;28577;-76
2022/11/19 12:26:14;;;;;;;;;;;;;;;;;;8437039;27;28234;-77
2022/11/19 12:30:16;;;;;;;;;;;;;;;;;;8453423;27;28940;-77
2022/11/19 12:34:16;;;;;;;;;;;;;;;;;;8447606;27;27207;-75
2022/11/19 12:38:16;;;;;;;;;;;;;;;;;;8448093;27;27096;-77
2022/11/19 12:42:16;;;;;;;;;;;;;;;;;;8449899;27;28440;-78
2022/11/19 12:46:17;;;;;;;;;;;;;;;;;;8445597;27;27414;-80
2022/11/19 12:50:17;;;;;;;;;;;;;;;;;;8439066;27;27289;-79
2022/11/19 12:54:17;;;;;;;;;;;;;;;;;;8448212;27;27628;-75
2022/11/19 12:58:18;;;;;;;;;;;;;;;;;;8445314;27;27224;-76
2022/11/19 13:02:18;;;;;;;;;;;;;;;;;;8446657;27;28560;-76
2022/11/19 13:06:18;;;;;;;;;;;;;;;;;;8445577;27;27271;-76
2022/11/19 13:10:19;;;;;;;;;;;;;;;;;;8451073;27;27678;-77
2022/11/19 13:14:19;;;;;;;;;;;;;;;;;;8453076;27;28608;-79
2022/11/19 13:18:19;;;;;;;;;;;;;;;;;;8448351;27;27301;-79
2022/11/19 13:22:19;;;;;;;;;;;;;;;;;;8444687;27;28219;-78
2022/11/19 13:26:19;;;;;;;;;;;;;;;;;;8447964;27;28630;-78
2022/11/19 13:30:19;;;;;;;;;;;;;;;;;;8451120;27;28622;-77
2022/11/19 13:34:19;;;;;;;;;;;;;;;;;;8450138;27;27877;-79
2022/11/19 13:38:19;;;;;;;;;;;;;;;;;;8444316;27;27496;-79
2022/11/19 13:46:38;;;;;;;;;;;;;;;;;;8445353;27;27680;-76
2022/11/19 13:50:38;;;;;;;;;;;;;;;;;;8450952;27;27455;-77
2022/11/19 13:54:38;;;;;;;;;;;;;;;;;;8452883;27;28048;-80
2022/11/19 13:58:39;;;;;;;;;;;;;;;;;;8450405;27;28522;-78
2022/11/19 14:02:39;;;;;;;;;;;;;;;;;;8451794;27;27520;-80
2022/11/19 14:06:39;;;;;;;;;;;;;;;;;;8450885;27;27300;-79
2022/11/19 14:10:39;;;;;;;;;;;;;;;;;;8454738;27;28610;-77
2022/11/19 14:27:35;;;;;;;;;;;;;;;;;;8449849;27;27303;-77
2022/11/19 14:31:36;;;;;;;;;;;;;;;;;;8447285;27;27501;-75
2022/11/19 14:35:36;;;;;;;;;;;;;;;;;;8444716;27;28785;-76
2022/11/19 14:39:36;;;;;;;;;;;;;;;;;;8441769;27;28541;-79
2022/11/19 14:48:14;;;;;;;;;;;;;;;;;;8352142;28;27423;-77
2022/11/19 14:52:14;;;;;;;;;;;;;;;;;;8396775;27;27697;-76
2022/11/19 14:56:14;;;;;;;;;;;;;;;;;;8453310;27;29788;-76
2022/11/19 15:00:15;;;;;;;;;;;;;;;;;;8443181;27;27418;-78
2022/11/19 15:04:15;;;;;;;;;;;;;;;;;;8449807;27;27639;-78
2022/11/19 15:08:15;;;;;;;;;;;;;;;;;;8444302;27;27307;-80
2022/11/19 15:12:15;;;;;;;;;;;;;;;;;;8452608;27;29126;-77
2022/11/19 15:16:15;;;;;;;;;;;;;;;;;;8443723;27;28458;-76
2022/11/19 15:20:15;;;;;;;;;;;;;;;;;;8450790;27;27573;-77
2022/11/19 15:24:15;;;;;;;;;;;;;;;;;;8447063;27;28145;-77
2022/11/19 15:28:15;;;;;;;;;;;;;;;;;;8445983;27;28332;-77
2022/11/19 15:32:15;;;;;;;;;;;;;;;;;;8451314;27;28551;-77
2022/11/19 15:36:15;;;;;;;;;;;;;;;;;;8451067;27;28640;-77
2022/11/19 15:40:15;;;;;;;;;;;;;;;;;;8446925;27;28253;-76
2022/11/19 15:44:15;;;;;;;;;;;;;;;;;;8448548;27;27312;-76
2022/11/19 15:48:15;;;;;;;;;;;;;;;;;;8439769;27;27401;-77
2022/11/19 15:52:16;;;;;;;;;;;;;;;;;;8443351;27;27344;-79
2022/11/19 15:56:16;;;;;;;;;;;;;;;;;;8447537;27;27110;-79
2022/11/19 16:00:16;;;;;;;;;;;;;;;;;;8445711;27;27297;-77
2022/11/19 16:04:16;;;;;;;;;;;;;;;;;;8448877;27;27576;-76
2022/11/19 16:08:17;;;;;;;;;;;;;;;;;;8450723;27;28594;-77
2022/11/19 16:21:14;;;;;;;;;;;;;;;;;;8323340;28;27093;-76
2022/11/19 16:25:14;;;;;;;;;;;;;;;;;;8365994;27;28655;-76
2022/11/19 16:29:14;;;;;;;;;;;;;;;;;;8442830;27;29797;-76
2022/11/19 16:33:14;;;;;;;;;;;;;;;;;;8447043;27;28488;-76
2022/11/19 16:37:14;;;;;;;;;;;;;;;;;;8446427;27;27595;-77
2022/11/19 16:45:33;;;;;;;;;;;;;;;;;;8446267;27;27152;-76
2022/11/19 16:49:34;;;;;;;;;;;;;;;;;;8444974;27;27259;-77
2022/11/19 16:53:34;;;;;;;;;;;;;;;;;;8447410;27;28545;-77
2022/11/19 16:57:34;;;;;;;;;;;;;;;;;;8442138;27;27619;-77
2022/11/19 17:01:34;;;;;;;;;;;;;;;;;;8443742;27;27131;-78
2022/11/19 17:05:35;;;;;;;;;;;;;;;;;;8444886;27;27113;-77
2022/11/19 17:09:35;;;;;;;;;;;;;;;;;;8440718;27;27394;-76
2022/11/19 17:13:35;;;;;;;;;;;;;;;;;;8440102;27;29791;-78
2022/11/19 17:17:36;;;;;;;;;;;;;;;;;;8446886;27;28477;-77
2022/11/19 17:21:36;;;;;;;;;;;;;;;;;;8451403;27;28481;-78
2022/11/19 17:25:36;;;;;;;;;;;;;;;;;;8448900;27;28548;-78
2022/11/19 17:29:36;;;;;;;;;;;;;;;;;;8441178;27;27305;-77
2022/11/19 17:33:36;;;;;;;;;;;;;;;;;;8442086;27;28124;-77
2022/11/19 17:37:36;;;;;;;;;;;;;;;;;;8444512;27;27429;-78
2022/11/19 17:45:56;;;;;;;;;;;;;;;;;;8444655;27;27150;-77
2022/11/19 17:49:56;;;;;;;;;;;;;;;;;;8443792;27;28055;-78
2022/11/19 17:53:56;;;;;;;;;;;;;;;;;;8447362;27;27396;-78
2022/11/19 17:57:56;;;;;;;;;;;;;;;;;;8446116;27;27512;-77
2022/11/19 18:01:57;;;;;;;;;;;;;;;;;;8453796;27;28487;-77
2022/11/19 18:05:57;;;;;;;;;;;;;;;;;;8442594;27;27084;-76
2022/11/19 18:09:57;;;;;;;;;;;;;;;;;;8445140;27;29031;-77
2022/11/19 18:13:58;;;;;;;;;;;;;;;;;;8448030;27;27195;-77
2022/11/19 18:17:58;;;;;;;;;;;;;;;;;;8447552;27;27597;-76
2022/11/19 18:21:58;;;;;;;;;;;;;;;;;;8445573;27;27900;-77
2022/11/19 18:25:58;;;;;;;;;;;;;;;;;;8452173;27;27129;-78
2022/11/19 18:29:59;;;;;;;;;;;;;;;;;;8450471;27;28323;-77
2022/11/19 18:33:59;;;;;;;;;;;;;;;;;;8449007;27;27469;-78
2022/11/19 18:37:59;;;;;;;;;;;;;;;;;;8449947;27;27375;-76
2022/11/19 18:41:59;;;;;;;;;;;;;;;;;;8441118;27;27376;-76
2022/11/19 18:45:59;;;;;;;;;;;;;;;;;;8451904;27;27395;-77
2022/11/19 18:49:59;;;;;;;;;;;;;;;;;;8449220;27;28783;-75
2022/11/19 18:53:59;;;;;;;;;;;;;;;;;;8452538;27;27424;-76
2022/11/19 18:58:00;;;;;;;;;;;;;;;;;;8447126;27;27361;-76
2022/11/19 19:02:00;;;;;;;;;;;;;;;;;;8448186;27;28449;-77
2022/11/19 19:06:00;;;;;;;;;;;;;;;;;;8450342;27;27641;-77
2022/11/19 19:10:00;;;;;;;;;;;;;;;;;;8441732;27;28258;-77
2022/11/19 19:14:01;;;;;;;;;;;;;;;;;;8450265;27;27246;-76
2022/11/19 19:18:01;;;;;;;;;;;;;;;;;;8453987;27;27322;-78
2022/11/19 19:22:01;;;;;;;;;;;;;;;;;;8443727;27;27388;-77
2022/11/19 19:26:01;;;;;;;;;;;;;;;;;;8450359;27;28461;-78
2022/11/19 19:30:02;;;;;;;;;;;;;;;;;;8456423;27;27599;-78
2022/11/19 19:34:02;;;;;;;;;;;;;;;;;;8448676;27;27261;-77
2022/11/19 19:38:02;;;;;;;;;;;;;;;;;;8448006;27;28313;-74
2022/11/19 19:42:02;;;;;;;;;;;;;;;;;;8455024;27;27245;-78
2022/11/19 19:46:02;;;;;;;;;;;;;;;;;;8450175;27;27218;-77
2022/11/19 19:50:02;;;;;;;;;;;;;;;;;;8452493;27;27157;-76
2022/11/19 19:54:02;;;;;;;;;;;;;;;;;;8446759;27;28267;-76
2022/11/19 19:58:05;;;;;;;;;;;;;;;;;;8447441;27;28382;-77
2022/11/19 20:02:06;;;;;;;;;;;;;;;;;;8442076;27;28817;-77
2022/11/19 20:06:06;;;;;;;;;;;;;;;;;;8446955;27;27245;-77
2022/11/19 20:10:06;;;;;;;;;;;;;;;;;;8445650;27;27129;-77
2022/11/19 20:14:06;;;;;;;;;;;;;;;;;;8448808;27;28587;-77
2022/11/19 20:18:06;;;;;;;;;;;;;;;;;;8451112;27;27552;-77
2022/11/19 20:22:06;;;;;;;;;;;;;;;;;;8449865;27;28658;-76
2022/11/19 20:39:04;;;;;;;;;;;;;;;;;;8447705;27;27287;-75
2022/11/19 20:47:23;;;;;;;;;;;;;;;;;;8447765;27;27232;-75
2022/11/19 20:51:23;;;;;;;;;;;;;;;;;;8450817;27;30156;-74
2022/11/19 20:55:25;;;;;;;;;;;;;;;;;;8450092;27;48827;-75
2022/11/19 20:59:25;;;;;;;;;;;;;;;;;;8449877;27;27301;-75
2022/11/19 21:03:25;;;;;;;;;;;;;;;;;;8448053;27;27441;-75
2022/11/19 21:07:25;;;;;;;;;;;;;;;;;;8443855;27;27968;-74
2022/11/19 21:11:25;;;;;;;;;;;;;;;;;;8442435;27;28035;-74
2022/11/19 21:15:25;;;;;;;;;;;;;;;;;;8447429;27;27508;-75
2022/11/19 21:19:25;;;;;;;;;;;;;;;;;;8456052;27;27760;-75
2022/11/19 21:23:25;;;;;;;;;;;;;;;;;;8451040;27;27710;-75
2022/11/19 21:27:25;;;;;;;;;;;;;;;;;;8451970;27;27750;-74
2022/11/19 21:31:36;;;;;;;;;;;;;;;;;;8448518;27;27338;-74
2022/11/19 21:35:36;;;;;;;;;;;;;;;;;;8450518;27;27361;-74
2022/11/19 21:39:36;;;;;;;;;;;;;;;;;;8450024;27;27396;-74
2022/11/19 21:43:37;;;;;;;;;;;;;;;;;;8442150;27;27173;-74
2022/11/19 21:47:37;;;;;;;;;;;;;;;;;;8445307;27;28775;-74
2022/11/19 21:51:37;;;;;;;;;;;;;;;;;;8451123;27;28688;-73
2022/11/19 21:55:37;;;;;;;;;;;;;;;;;;8447429;27;27463;-74
2022/11/19 21:59:37;;;;;;;;;;;;;;;;;;8445263;27;28738;-75
2022/11/19 22:03:37;;;;;;;;;;;;;;;;;;8447724;27;28793;-75
2022/11/19 22:07:37;;;;;;;;;;;;;;;;;;8451956;27;28181;-74
2022/11/19 22:11:37;;;;;;;;;;;;;;;;;;8449953;27;27336;-73
2022/11/19 22:15:37;;;;;;;;;;;;;;;;;;8454429;27;27470;-72
2022/11/19 22:19:37;;;;;;;;;;;;;;;;;;8446627;27;28660;-71
2022/11/19 22:23:38;;;;;;;;;;;;;;;;;;8442475;27;27746;-72
2022/11/19 22:27:38;;;;;;;;;;;;;;;;;;8450727;27;28815;-73
2022/11/19 22:31:38;;;;;;;;;;;;;;;;;;8445533;27;27324;-73
2022/11/19 22:35:38;;;;;;;;;;;;;;;;;;8447446;27;28520;-74
2022/11/19 22:39:38;;;;;;;;;;;;;;;;;;8451660;27;27270;-74
2022/11/19 22:43:38;;;;;;;;;;;;;;;;;;8449193;27;27683;-73
2022/11/19 22:47:38;;;;;;;;;;;;;;;;;;8449435;27;27800;-74
2022/11/19 22:51:38;;;;;;;;;;;;;;;;;;8449035;27;27416;-74
2022/11/19 22:55:38;;;;;;;;;;;;;;;;;;8451834;27;27404;-73
2022/11/19 22:59:38;;;;;;;;;;;;;;;;;;8446080;27;27876;-75
2022/11/19 23:03:39;;;;;;;;;;;;;;;;;;8447148;27;28349;-74
2022/11/19 23:07:39;;;;;;;;;;;;;;;;;;8451691;27;28483;-74
2022/11/19 23:15:58;;;;;;;;;;;;;;;;;;8446647;27;27385;-73
2022/11/19 23:19:58;;;;;;;;;;;;;;;;;;8450926;27;29800;-74
2022/11/19 23:24:01;;;;;;;;;;;;;;;;;;8445657;27;27196;-74
2022/11/19 23:28:01;;;;;;;;;;;;;;;;;;8450482;27;27206;-74
2022/11/19 23:32:01;;;;;;;;;;;;;;;;;;8449720;27;29523;-73
2022/11/19 23:36:02;;;;;;;;;;;;;;;;;;8445878;27;27396;-72
2022/11/19 23:40:02;;;;;;;;;;;;;;;;;;8445786;27;27475;-73
2022/11/19 23:44:02;;;;;;;;;;;;;;;;;;8451018;27;27592;-74
2022/11/19 23:48:02;;;;;;;;;;;;;;;;;;8445732;27;27478;-74
2022/11/19 23:52:02;;;;;;;;;;;;;;;;;;8456440;27;29696;-75
2022/11/19 23:56:02;;;;;;;;;;;;;;;;;;8449619;27;27479;-73
